Details From WALL - Balikpapan/Sepinggan
To WAMM - Manado Sam Ratulangi
Flight Number -
Tags generated
Created
Modified
Stats Distance 514 nm / 951 km
Max Altitude 35,000 ft / 10,668 m
Waypoints 5
Social Downloads 1
Likes 0
Share

Download

Looking for another format? Having issues loading an existing format? Contact us
Advertisement - Login to hide

Notes

Basic altitude profile: - Ascent Rate: 2500ft/min - Ascent Speed: 250kts - Cruise Altitude: 34000ft - Cruise Speed: 420kts - Descent Rate: 1500ft/min - Descent Speed: 250kts Options: - Use NATs: yes - Use PACOTS: yes - Use low airways: yes - Use high airways: yes

Route

WALL BPN W15 TOSTY WAMM

ID Type Via Altitude (ft/m) Position (lat/lon) Dist (leg/tot) Name
O WALL APT - 0 / 0 -1.26827 / 116.89448 - / 0 nm Balikpapan/Sepinggan
BPN VOR - 1,000 / 305 -1.24569 / 116.94030 3 / 3 nm BALIKPAPAN VOR-DME
LADOP FIX W15 (AWY-LO) 35,000 / 10,668 0.02843 / 119.51135 172 / 175 nm
TOSTY FIX W15 (AWY-LO) 21,900 / 6,675 0.93875 / 123.33534 236 / 411 nm
O WAMM APT - 0 / 0 1.54737 / 124.92516 102 / 513 nm Manado Sam Ratulangi

Altitude Profile

Advertisement - Login to hide

Weather


0- 5 10 15 20 25 30 35+ Temperature / °C

Clouds and Precipitation
Forecast for 2022-05-26 18:00 UTC. Updated 3 hours ago

Ground ~20,000 ft ~40,000 ft Winds

WALL

Details ICAO WALL (BPN)
Name Balikpapan Sepinggan
Region Indonesia
Timezone Asia/Makassar (UTC+8.0)
Stats Elevation 12 ft / 4 m (AMSL)
Location -1.268270° 116.894000°
Runways 1
Magnetic Variation 0.093° E

METAR

WALL 261800Z 25006KT 9000 FEW020 26/24 Q1008 NOSIG

Decode

TAF

TAF WALL 261700Z 2618/2724 23003KT 9000 FEW020= TAF WALS 261700Z 2618/2706 00000KT 8000 SCT016

Decode

Departure Runways

ID Width Length Bearing (true/mag) Surface Threshold Overrun Markings Lighting
07 148 ft / 45 m 8,210 ft / 2,502 m 67.03° / 66.94° ASPHALT 0 ft / 0 m 197 ft / 60 m PREC-APP EDGE THRESHOLD REIL-OMNI
25 148 ft / 45 m 8,210 ft / 2,502 m 247.03° / 246.94° ASPHALT 0 ft / 0 m 197 ft / 60 m PREC-APP EDGE THRESHOLD MALS

WAMM

Details ICAO WAMM (MDC)
Name Manado Sam Ratulangi
Region Indonesia
Timezone Asia/Makassar (UTC+8.0)
Stats Elevation 270 ft / 82 m (AMSL)
Location 1.549300° 124.926000°
Runways 1
Magnetic Variation 0.328° W

METAR

WAMM 261830Z VRB01KT 9000 SCT019 24/24 Q1009 NOSIG

Decode

TAF

TAF WAMM 261700Z 2618/2724 VRB03KT 9999 SCT020 BECMG 2700/2701 08009KT PROB40 TEMPO 2704/2707 5000 TSRA FEW017CB

Decode

Destination Runways

ID Width Length Bearing (true/mag) Surface Threshold Overrun Markings Lighting
18 148 ft / 45 m 8,735 ft / 2,663 m 181.90° / 182.23° ASPHALT 0 ft / 0 m 197 ft / 60 m PREC-APP EDGE THRESHOLD SALS REIL-OMNI
36 148 ft / 45 m 8,735 ft / 2,663 m 1.90° / 2.23° ASPHALT 0 ft / 0 m 197 ft / 60 m PREC-APP EDGE THRESHOLD SALS REIL-OMNI

Approach Navaids

Runway Type Ident Frequency Range Bearing (true/mag) Slope Elevation
18 LOC-ILS IMNO 111.10 MHz 18 nm / 33 km 181.90° / 182.22 ° - 264 ft / 80 m (AMSL)
18 GS IMNO 111.10 MHz 10 nm / 19 km 182.86° / 183.19 ° 3.25° 264 ft / 80 m (AMSL)
36 LOC-ILS ITDO 110.50 MHz 18 nm / 33 km 1.92° / 2.24 ° - 264 ft / 80 m (AMSL)
36 GS ITDO 110.50 MHz 10 nm / 19 km 2.86° / 3.19 ° 3.25° 264 ft / 80 m (AMSL)

Popular Alternatives